createdAt,value
2018-07-23T00:00:29.668Z,1013.58
2018-07-23T00:01:29.720Z,1013.61
2018-07-23T00:02:29.628Z,1013.61
2018-07-23T00:03:29.643Z,1013.60
2018-07-23T00:04:29.592Z,1013.59
2018-07-23T00:05:29.645Z,1013.65
2018-07-23T00:06:29.551Z,1013.62
2018-07-23T00:07:29.559Z,1013.58
2018-07-23T00:08:29.511Z,1013.59
2018-07-23T00:09:29.570Z,1013.63
2018-07-23T00:10:29.474Z,1013.58
2018-07-23T00:11:29.483Z,1013.56
2018-07-23T00:12:29.435Z,1013.57
2018-07-23T00:13:29.498Z,1013.54
2018-07-23T00:14:29.395Z,1013.50
2018-07-23T00:15:29.411Z,1013.54
2018-07-23T00:16:29.357Z,1013.53
2018-07-23T00:17:29.424Z,1013.50
2018-07-23T00:18:29.315Z,1013.55
2018-07-23T00:19:29.336Z,1013.51
2018-07-23T00:20:29.283Z,1013.54
2018-07-23T00:21:29.345Z,1013.54
2018-07-23T00:22:29.241Z,1013.55
2018-07-23T00:23:29.264Z,1013.53
2018-07-23T00:24:29.198Z,1013.54
2018-07-23T00:25:29.278Z,1013.54
2018-07-23T00:26:29.159Z,1013.53
2018-07-23T00:27:29.187Z,1013.56
2018-07-23T00:28:29.120Z,1013.55
2018-07-23T00:29:29.201Z,1013.58
2018-07-23T00:30:29.079Z,1013.58
2018-07-23T00:31:29.115Z,1013.56
2018-07-23T00:32:29.042Z,1013.58
2018-07-23T00:33:29.125Z,1013.59
2018-07-23T00:34:29.002Z,1013.57
2018-07-23T00:35:29.039Z,1013.56
2018-07-23T00:36:28.965Z,1013.60
2018-07-23T00:37:29.073Z,1013.60
2018-07-23T00:38:28.919Z,1013.59
2018-07-23T00:39:28.965Z,1013.61
2018-07-23T00:40:28.881Z,1013.57
2018-07-23T00:41:28.876Z,1013.58
2018-07-23T00:42:28.842Z,1013.57
2018-07-23T00:43:28.891Z,1013.60
2018-07-23T00:44:28.802Z,1013.61
2018-07-23T00:45:28.803Z,1013.61
2018-07-23T00:46:28.761Z,1013.60
2018-07-23T00:47:28.817Z,1013.60
2018-07-23T00:48:28.725Z,1013.61
2018-07-23T00:49:28.737Z,1013.60
2018-07-23T00:50:28.684Z,1013.56
2018-07-23T00:51:28.743Z,1013.59
2018-07-23T00:52:28.642Z,1013.60
2018-07-23T00:53:28.658Z,1013.61
2018-07-23T00:54:28.604Z,1013.61
2018-07-23T00:55:28.674Z,1013.58
2018-07-23T00:56:28.562Z,1013.62
2018-07-23T00:57:28.589Z,1013.62
2018-07-23T00:58:28.528Z,1013.63
2018-07-23T00:59:28.600Z,1013.61
2018-07-23T01:00:28.483Z,1013.60
2018-07-23T01:01:28.514Z,1013.64
2018-07-23T01:02:28.445Z,1013.62
2018-07-23T01:03:28.528Z,1013.60
2018-07-23T01:04:28.406Z,1013.62
2018-07-23T01:05:28.438Z,1013.60
2018-07-23T01:06:28.370Z,1013.57
2018-07-23T01:07:28.453Z,1013.57
2018-07-23T01:08:28.327Z,1013.55
2018-07-23T01:09:28.364Z,1013.56
2018-07-23T01:10:28.286Z,1013.56
2018-07-23T01:11:28.378Z,1013.55
2018-07-23T01:12:28.243Z,1013.58
2018-07-23T01:13:28.290Z,1013.58
2018-07-23T01:14:28.208Z,1013.59
2018-07-23T01:15:28.218Z,1013.60
2018-07-23T01:16:28.161Z,1013.58
2018-07-23T01:17:28.202Z,1013.59
2018-07-23T01:18:28.123Z,1013.61
2018-07-23T01:19:28.124Z,1013.61
2018-07-23T01:20:28.087Z,1013.61
2018-07-23T01:21:28.146Z,1013.61
2018-07-23T01:22:28.043Z,1013.58
2018-07-23T01:23:28.052Z,1013.59
2018-07-23T01:24:28.001Z,1013.57
2018-07-23T01:25:28.066Z,1013.58
2018-07-23T01:26:27.972Z,1013.61
2018-07-23T01:27:27.980Z,1013.60
2018-07-23T01:28:27.924Z,1013.58
2018-07-23T01:29:27.990Z,1013.59
2018-07-23T01:30:27.883Z,1013.54
2018-07-23T01:31:27.902Z,1013.54
2018-07-23T01:32:27.841Z,1013.53
2018-07-23T01:33:27.917Z,1013.53
2018-07-23T01:34:27.800Z,1013.52
2018-07-23T01:35:27.827Z,1013.50
2018-07-23T01:36:27.760Z,1013.47
2018-07-23T01:37:27.876Z,1013.48
2018-07-23T01:38:27.720Z,1013.50
2018-07-23T01:39:27.753Z,1013.50
2018-07-23T01:40:27.682Z,1013.50
2018-07-23T01:41:27.770Z,1013.52
2018-07-23T01:42:27.643Z,1013.52
2018-07-23T01:43:27.681Z,1013.50
2018-07-23T01:44:27.607Z,1013.52
2018-07-23T01:45:27.591Z,1013.54
2018-07-23T01:46:27.557Z,1013.56
2018-07-23T01:47:27.604Z,1013.56
2018-07-23T01:48:27.522Z,1013.54
2018-07-23T01:49:27.519Z,1013.53
2018-07-23T01:50:27.473Z,1013.58
2018-07-23T01:51:27.532Z,1013.58
2018-07-23T01:52:27.459Z,1013.59
2018-07-23T01:53:27.442Z,1013.58
2018-07-23T01:54:27.387Z,1013.58
2018-07-23T01:55:27.458Z,1013.58
2018-07-23T01:56:27.355Z,1013.62
2018-07-23T01:57:27.369Z,1013.60
2018-07-23T01:58:27.318Z,1013.57
2018-07-23T01:59:27.384Z,1013.57
2018-07-23T02:00:27.275Z,1013.60
2018-07-23T02:01:27.295Z,1013.57
2018-07-23T02:02:27.237Z,1013.59
2018-07-23T02:03:27.310Z,1013.58
2018-07-23T02:04:27.189Z,1013.58
2018-07-23T02:05:27.220Z,1013.58
2018-07-23T02:06:27.146Z,1013.58
2018-07-23T02:07:27.236Z,1013.58
2018-07-23T02:08:27.111Z,1013.59
2018-07-23T02:09:27.147Z,1013.60
2018-07-23T02:10:27.065Z,1013.60
2018-07-23T02:11:27.061Z,1013.57
2018-07-23T02:12:27.024Z,1013.57
2018-07-23T02:13:27.072Z,1013.60
2018-07-23T02:14:26.983Z,1013.63
2018-07-23T02:15:26.985Z,1013.61
2018-07-23T02:16:26.947Z,1013.65
2018-07-23T02:17:27.000Z,1013.64
2018-07-23T02:18:26.905Z,1013.62
2018-07-23T02:19:26.912Z,1013.64
2018-07-23T02:20:26.862Z,1013.63
2018-07-23T02:21:26.925Z,1013.62
2018-07-23T02:22:26.827Z,1013.64
2018-07-23T02:23:26.837Z,1013.66
2018-07-23T02:24:26.781Z,1013.65
2018-07-23T02:25:26.851Z,1013.62
2018-07-23T02:26:26.735Z,1013.59
2018-07-23T02:27:26.763Z,1013.61
2018-07-23T02:28:26.696Z,1013.61
2018-07-23T02:29:26.778Z,1013.64
2018-07-23T02:30:26.659Z,1013.59
2018-07-23T02:31:26.692Z,1013.59
2018-07-23T02:32:26.611Z,1013.64
2018-07-23T02:33:26.694Z,1013.64
2018-07-23T02:34:26.568Z,1013.63
2018-07-23T02:35:26.616Z,1013.65
2018-07-23T02:36:26.532Z,1013.64
2018-07-23T02:37:26.527Z,1013.67
2018-07-23T02:38:26.487Z,1013.66
2018-07-23T02:39:26.541Z,1013.65
2018-07-23T02:40:26.456Z,1013.67
2018-07-23T02:41:26.455Z,1013.65
2018-07-23T02:42:26.414Z,1013.69
2018-07-23T02:43:26.491Z,1013.68
2018-07-23T02:44:26.368Z,1013.67
2018-07-23T02:45:26.381Z,1013.65
2018-07-23T02:46:26.318Z,1013.63
2018-07-23T02:47:26.399Z,1013.67
2018-07-23T02:48:26.279Z,1013.64
2018-07-23T02:49:26.307Z,1013.63
2018-07-23T02:50:26.235Z,1013.66
2018-07-23T02:51:26.326Z,1013.65
2018-07-23T02:52:26.195Z,1013.68
2018-07-23T02:53:26.235Z,1013.67
2018-07-23T02:54:26.155Z,1013.72
2018-07-23T02:55:26.146Z,1013.75
2018-07-23T02:56:26.109Z,1013.76
2018-07-23T02:57:26.157Z,1013.77
2018-07-23T02:58:26.068Z,1013.78
2018-07-23T02:59:26.072Z,1013.77
2018-07-23T03:00:26.026Z,1013.76
2018-07-23T03:01:26.086Z,1013.73
2018-07-23T03:02:25.983Z,1013.76
2018-07-23T03:03:25.998Z,1013.76
2018-07-23T03:04:25.941Z,1013.74
2018-07-23T03:05:26.012Z,1013.77
2018-07-23T03:06:25.901Z,1013.74
2018-07-23T03:07:25.926Z,1013.74
2018-07-23T03:08:25.863Z,1013.74
2018-07-23T03:09:25.938Z,1013.76
2018-07-23T03:10:25.820Z,1013.74
2018-07-23T03:11:25.851Z,1013.73
2018-07-23T03:12:25.786Z,1013.75
2018-07-23T03:13:25.867Z,1013.72
2018-07-23T03:14:25.734Z,1013.74
2018-07-23T03:15:25.777Z,1013.73
2018-07-23T03:16:25.700Z,1013.75
2018-07-23T03:17:25.689Z,1013.76
2018-07-23T03:18:25.648Z,1013.77
2018-07-23T03:19:25.700Z,1013.74
2018-07-23T03:20:25.608Z,1013.76
2018-07-23T03:21:25.613Z,1013.73
2018-07-23T03:22:25.571Z,1013.81
2018-07-23T03:23:25.629Z,1013.76
2018-07-23T03:24:25.527Z,1013.77
2018-07-23T03:25:25.541Z,1013.79
2018-07-23T03:26:25.481Z,1013.78
2018-07-23T03:27:25.554Z,1013.75
2018-07-23T03:28:25.437Z,1013.77
2018-07-23T03:29:25.469Z,1013.81
2018-07-23T03:30:25.403Z,1013.81
2018-07-23T03:31:25.482Z,1013.84
2018-07-23T03:32:25.366Z,1013.84
2018-07-23T03:33:25.390Z,1013.85
2018-07-23T03:34:25.330Z,1013.91
2018-07-23T03:35:25.405Z,1013.90
2018-07-23T03:36:25.277Z,1013.90
2018-07-23T03:37:25.316Z,1013.89
2018-07-23T03:38:25.229Z,1013.92
2018-07-23T03:39:25.228Z,1013.93
2018-07-23T03:40:25.188Z,1013.88
2018-07-23T03:41:25.243Z,1013.90
2018-07-23T03:42:25.147Z,1013.90
2018-07-23T03:43:25.159Z,1013.95
2018-07-23T03:44:25.119Z,1013.87
2018-07-23T03:45:25.171Z,1013.93
2018-07-23T03:46:25.065Z,1013.94
2018-07-23T03:47:25.088Z,1013.94
2018-07-23T03:48:25.026Z,1013.92
2018-07-23T03:49:25.104Z,1013.90
2018-07-23T03:50:24.981Z,1013.92
2018-07-23T03:51:25.006Z,1013.87
2018-07-23T03:52:24.937Z,1013.92
2018-07-23T03:53:25.019Z,1013.92
2018-07-23T03:54:24.896Z,1013.90
2018-07-23T03:55:24.927Z,1013.90
2018-07-23T03:56:24.855Z,1013.95
2018-07-23T03:57:24.846Z,1013.92
2018-07-23T03:58:24.811Z,1013.91
2018-07-23T03:59:24.860Z,1013.95
2018-07-23T04:00:24.770Z,1013.92
2018-07-23T04:01:24.776Z,1013.94
2018-07-23T04:02:24.737Z,1013.96
2018-07-23T04:03:24.827Z,1013.95
2018-07-23T04:04:24.691Z,1013.93
2018-07-23T04:05:24.700Z,1013.96
2018-07-23T04:06:24.650Z,1013.94
2018-07-23T04:07:24.719Z,1014.01
2018-07-23T04:08:24.601Z,1013.99
2018-07-23T04:09:24.625Z,1013.99
2018-07-23T04:10:24.563Z,1014.01
2018-07-23T04:11:24.639Z,1013.99
2018-07-23T04:12:24.524Z,1014.00
2018-07-23T04:13:24.552Z,1014.00
2018-07-23T04:14:24.486Z,1014.01
2018-07-23T04:15:24.566Z,1014.02
2018-07-23T04:16:24.437Z,1014.01
2018-07-23T04:17:24.488Z,1014.03
2018-07-23T04:18:24.398Z,1013.99
2018-07-23T04:19:24.489Z,1013.96
2018-07-23T04:20:24.356Z,1013.95
2018-07-23T04:21:24.401Z,1013.95
2018-07-23T04:22:24.316Z,1013.94
2018-07-23T04:23:24.312Z,1013.98
2018-07-23T04:24:24.275Z,1013.94
2018-07-23T04:25:24.328Z,1013.90
2018-07-23T04:26:24.241Z,1013.94
2018-07-23T04:27:24.240Z,1013.89
2018-07-23T04:28:24.190Z,1013.88
2018-07-23T04:29:24.252Z,1013.89
2018-07-23T04:30:24.151Z,1013.91
2018-07-23T04:31:24.166Z,1013.95
2018-07-23T04:32:24.106Z,1013.96
2018-07-23T04:33:24.176Z,1013.97
2018-07-23T04:34:24.069Z,1013.97
2018-07-23T04:35:24.091Z,1013.97
2018-07-23T04:36:24.026Z,1013.94
2018-07-23T04:37:24.102Z,1013.98
2018-07-23T04:38:23.985Z,1013.99
2018-07-23T04:39:24.014Z,1014.00
2018-07-23T04:40:23.948Z,1013.98
2018-07-23T04:41:24.029Z,1014.00
2018-07-23T04:42:23.937Z,1014.00
2018-07-23T04:43:23.950Z,1014.02
2018-07-23T04:44:23.861Z,1014.00
2018-07-23T04:45:23.955Z,1014.04
2018-07-23T04:46:23.820Z,1014.07
2018-07-23T04:47:23.870Z,1014.06
2018-07-23T04:48:23.782Z,1014.07
2018-07-23T04:49:23.856Z,1014.11
2018-07-23T04:50:23.741Z,1014.14
2018-07-23T04:51:23.794Z,1014.15
2018-07-23T04:52:23.700Z,1014.14
2018-07-23T04:53:23.707Z,1014.16
2018-07-23T04:54:23.662Z,1014.20
2018-07-23T04:55:23.721Z,1014.20
2018-07-23T04:56:23.617Z,1014.25
2018-07-23T04:57:23.631Z,1014.28
2018-07-23T04:58:23.574Z,1014.27
2018-07-23T04:59:23.647Z,1014.24
2018-07-23T05:00:23.535Z,1014.26
2018-07-23T05:01:23.561Z,1014.27
2018-07-23T05:02:23.497Z,1014.26
2018-07-23T05:03:23.577Z,1014.24
2018-07-23T05:04:23.458Z,1014.25
2018-07-23T05:05:23.486Z,1014.25
2018-07-23T05:06:23.412Z,1014.27
2018-07-23T05:07:23.504Z,1014.30
2018-07-23T05:08:23.385Z,1014.30
2018-07-23T05:09:23.519Z,1014.29
2018-07-23T05:10:23.432Z,1014.33
2018-07-23T05:11:23.310Z,1014.34
2018-07-23T05:12:23.433Z,1014.31
2018-07-23T05:13:23.273Z,1014.32
2018-07-23T05:14:23.343Z,1014.32
2018-07-23T05:15:23.431Z,1014.31
2018-07-23T05:16:23.213Z,1014.29
2018-07-23T05:17:23.366Z,1014.32
2018-07-23T05:18:23.170Z,1014.33
2018-07-23T05:19:23.175Z,1014.36
2018-07-23T05:20:23.128Z,1014.33
2018-07-23T05:21:23.291Z,1014.34
2018-07-23T05:22:23.115Z,1014.31
2018-07-23T05:23:23.204Z,1014.33
2018-07-23T05:24:23.087Z,1014.36
2018-07-23T05:25:23.220Z,1014.31
2018-07-23T05:26:23.015Z,1014.32
2018-07-23T05:27:23.133Z,1014.32
2018-07-23T05:28:22.986Z,1014.34
2018-07-23T05:29:23.145Z,1014.34
2018-07-23T05:30:22.929Z,1014.39
2018-07-23T05:31:22.955Z,1014.33
2018-07-23T05:32:22.892Z,1014.37
2018-07-23T05:33:23.067Z,1014.35
2018-07-23T05:34:22.845Z,1014.35
2018-07-23T05:35:22.885Z,1014.33
2018-07-23T05:36:22.985Z,1014.35
2018-07-23T05:37:22.996Z,1014.34
2018-07-23T05:38:22.809Z,1014.33
2018-07-23T05:39:22.908Z,1014.33
2018-07-23T05:40:22.727Z,1014.31
2018-07-23T05:41:22.816Z,1014.37
2018-07-23T05:42:22.686Z,1014.38
2018-07-23T05:43:22.732Z,1014.40
2018-07-23T05:44:22.645Z,1014.36
2018-07-23T05:45:22.746Z,1014.40
2018-07-23T05:46:22.607Z,1014.41
2018-07-23T05:47:22.658Z,1014.40
2018-07-23T05:48:22.574Z,1014.43
2018-07-23T05:49:22.674Z,1014.42
2018-07-23T05:50:22.527Z,1014.44
2018-07-23T05:51:22.583Z,1014.49
2018-07-23T05:52:22.485Z,1014.44
2018-07-23T05:53:22.599Z,1014.44
2018-07-23T05:54:22.445Z,1014.45
2018-07-23T05:55:22.508Z,1014.45
2018-07-23T05:56:22.412Z,1014.48
2018-07-23T05:57:22.523Z,1014.46
2018-07-23T05:58:22.369Z,1014.48
2018-07-23T05:59:22.437Z,1014.44
2018-07-23T06:00:22.327Z,1014.42
2018-07-23T06:01:22.347Z,1014.45
2018-07-23T06:02:22.293Z,1014.43
2018-07-23T06:03:22.360Z,1014.45
2018-07-23T06:04:22.252Z,1014.40
2018-07-23T06:05:22.274Z,1014.41
2018-07-23T06:06:22.244Z,1014.42
2018-07-23T06:07:22.287Z,1014.39
2018-07-23T06:08:22.169Z,1014.37
2018-07-23T06:09:22.198Z,1014.40
2018-07-23T06:10:22.137Z,1014.39
2018-07-23T06:11:22.214Z,1014.40
2018-07-23T06:12:22.093Z,1014.41
2018-07-23T06:13:22.132Z,1014.39
2018-07-23T06:14:22.062Z,1014.37
2018-07-23T06:15:22.141Z,1014.34
2018-07-23T06:16:22.015Z,1014.33
2018-07-23T06:17:22.063Z,1014.33
2018-07-23T06:18:21.984Z,1014.31
2018-07-23T06:19:22.085Z,1014.33
2018-07-23T06:20:21.942Z,1014.32
2018-07-23T06:21:21.977Z,1014.31
2018-07-23T06:22:21.901Z,1014.31
2018-07-23T06:23:21.991Z,1014.32
2018-07-23T06:24:21.865Z,1014.32
2018-07-23T06:25:21.902Z,1014.31
2018-07-23T06:26:21.816Z,1014.29
2018-07-23T06:27:21.917Z,1014.30
2018-07-23T06:28:21.780Z,1014.28
2018-07-23T06:29:21.829Z,1014.32
2018-07-23T06:30:21.791Z,1014.35
2018-07-23T06:31:21.843Z,1014.31
2018-07-23T06:32:21.738Z,1014.37
2018-07-23T06:33:21.755Z,1014.37
2018-07-23T06:34:21.662Z,1014.34
2018-07-23T06:35:21.768Z,1014.38
2018-07-23T06:36:21.629Z,1014.37
2018-07-23T06:37:21.680Z,1014.39
2018-07-23T06:38:21.592Z,1014.38
2018-07-23T06:39:21.696Z,1014.41
2018-07-23T06:40:21.546Z,1014.43
2018-07-23T06:41:21.606Z,1014.42
2018-07-23T06:42:21.514Z,1014.39
2018-07-23T06:43:21.580Z,1014.40
2018-07-23T06:44:21.470Z,1014.45
2018-07-23T06:45:21.531Z,1014.43
2018-07-23T06:46:21.432Z,1014.43
2018-07-23T06:47:21.478Z,1014.47
2018-07-23T06:48:21.398Z,1014.46
2018-07-23T06:49:21.460Z,1014.49
2018-07-23T06:50:21.363Z,1014.52
2018-07-23T06:51:21.370Z,1014.55
2018-07-23T06:52:21.318Z,1014.54
2018-07-23T06:53:21.386Z,1014.54
2018-07-23T06:54:21.283Z,1014.55
2018-07-23T06:55:21.298Z,1014.56
2018-07-23T06:56:21.243Z,1014.60
2018-07-23T06:57:21.355Z,1014.57
2018-07-23T06:58:21.209Z,1014.58
2018-07-23T06:59:21.222Z,1014.56
2018-07-23T07:00:21.169Z,1014.53
2018-07-23T07:01:21.237Z,1014.55
2018-07-23T07:02:21.129Z,1014.56
2018-07-23T07:03:21.241Z,1014.52
2018-07-23T07:04:21.097Z,1014.53
2018-07-23T07:05:21.164Z,1014.52
2018-07-23T07:06:21.107Z,1014.54
2018-07-23T07:07:21.108Z,1014.50
2018-07-23T07:08:21.022Z,1014.54
2018-07-23T07:09:21.089Z,1014.56
2018-07-23T07:10:20.980Z,1014.56
2018-07-23T07:11:21.002Z,1014.56
2018-07-23T07:12:20.941Z,1014.61
2018-07-23T07:13:21.048Z,1014.56
2018-07-23T07:14:20.909Z,1014.57
2018-07-23T07:15:20.927Z,1014.61
2018-07-23T07:16:20.868Z,1014.60
2018-07-23T07:17:20.943Z,1014.61
2018-07-23T07:18:20.831Z,1014.62
2018-07-23T07:19:20.852Z,1014.59
2018-07-23T07:20:20.793Z,1014.62
2018-07-23T07:21:20.868Z,1014.61
2018-07-23T07:22:20.757Z,1014.62
2018-07-23T07:23:20.781Z,1014.65
2018-07-23T07:24:20.720Z,1014.68
2018-07-23T07:25:20.831Z,1014.68
2018-07-23T07:26:20.680Z,1014.68
2018-07-23T07:27:20.709Z,1014.69
2018-07-23T07:28:20.652Z,1014.68
2018-07-23T07:29:20.721Z,1014.67
2018-07-23T07:30:20.612Z,1014.70
2018-07-23T07:31:20.633Z,1014.70
2018-07-23T07:32:20.573Z,1014.68
2018-07-23T07:33:20.649Z,1014.69
2018-07-23T07:34:20.541Z,1014.69
2018-07-23T07:35:20.558Z,1014.68
2018-07-23T07:36:20.495Z,1014.71
2018-07-23T07:37:20.574Z,1014.70
2018-07-23T07:38:20.481Z,1014.68
2018-07-23T07:39:20.501Z,1014.70
2018-07-23T07:40:20.425Z,1014.71
2018-07-23T07:41:20.496Z,1014.66
2018-07-23T07:42:20.392Z,1014.65
2018-07-23T07:43:20.429Z,1014.69
2018-07-23T07:44:20.348Z,1014.66
2018-07-23T07:45:20.438Z,1014.70
2018-07-23T07:46:20.338Z,1014.72
2018-07-23T07:47:20.336Z,1014.71
2018-07-23T07:48:20.282Z,1014.72
2018-07-23T07:49:20.366Z,1014.75
2018-07-23T07:50:20.246Z,1014.72
2018-07-23T07:51:20.269Z,1014.70
2018-07-23T07:52:20.225Z,1014.71
2018-07-23T07:53:20.290Z,1014.73
2018-07-23T07:54:20.184Z,1014.76
2018-07-23T07:55:20.191Z,1014.71
2018-07-23T07:56:20.139Z,1014.69
2018-07-23T07:57:20.204Z,1014.69
2018-07-23T07:58:20.109Z,1014.72
2018-07-23T07:59:20.118Z,1014.75
2018-07-23T08:00:20.068Z,1014.73
2018-07-23T08:01:20.131Z,1014.64
2018-07-23T08:02:20.035Z,1014.65
2018-07-23T08:03:20.048Z,1014.66
2018-07-23T08:04:20.000Z,1014.68
2018-07-23T08:05:20.057Z,1014.65
2018-07-23T08:06:19.963Z,1014.72
2018-07-23T08:07:19.971Z,1014.71
2018-07-23T08:08:19.929Z,1014.72
2018-07-23T08:09:19.984Z,1014.70
2018-07-23T08:10:19.897Z,1014.73
2018-07-23T08:11:19.897Z,1014.70
2018-07-23T08:12:19.869Z,1014.75
2018-07-23T08:13:19.911Z,1014.68
2018-07-23T08:14:19.828Z,1014.69
2018-07-23T08:15:19.922Z,1014.68
2018-07-23T08:16:19.797Z,1014.65
2018-07-23T08:17:19.836Z,1014.63
2018-07-23T08:18:19.757Z,1014.66
2018-07-23T08:19:19.848Z,1014.66
2018-07-23T08:20:19.726Z,1014.62
2018-07-23T08:21:19.759Z,1014.61
2018-07-23T08:22:19.689Z,1014.61
2018-07-23T08:23:19.774Z,1014.56
2018-07-23T08:24:19.672Z,1014.58
2018-07-23T08:25:19.685Z,1014.57
2018-07-23T08:26:19.632Z,1014.52
2018-07-23T08:27:19.699Z,1014.55
2018-07-23T08:28:19.590Z,1014.57
2018-07-23T08:29:19.610Z,1014.58
2018-07-23T08:30:19.557Z,1014.61
2018-07-23T08:31:19.625Z,1014.67
2018-07-23T08:32:19.529Z,1014.67
2018-07-23T08:33:19.537Z,1014.63
2018-07-23T08:34:19.478Z,1014.64
2018-07-23T08:35:19.550Z,1014.67
2018-07-23T08:36:19.463Z,1014.64
2018-07-23T08:37:19.461Z,1014.62
2018-07-23T08:38:19.423Z,1014.65
2018-07-23T08:39:19.475Z,1014.66
2018-07-23T08:40:19.413Z,1014.66
2018-07-23T08:41:19.389Z,1014.65
2018-07-23T08:42:19.368Z,1014.71
2018-07-23T08:43:19.404Z,1014.70
2018-07-23T08:44:19.332Z,1014.67
2018-07-23T08:45:19.418Z,1014.66
2018-07-23T08:46:19.297Z,1014.65
2018-07-23T08:47:19.337Z,1014.66
2018-07-23T08:48:19.258Z,1014.64
2018-07-23T08:49:19.343Z,1014.67
2018-07-23T08:50:19.233Z,1014.72
2018-07-23T08:51:19.290Z,1014.73
2018-07-23T08:52:19.197Z,1014.73
2018-07-23T08:53:19.268Z,1014.73
2018-07-23T08:54:19.169Z,1014.75
2018-07-23T08:55:19.180Z,1014.73
2018-07-23T08:56:19.134Z,1014.70
2018-07-23T08:57:19.207Z,1014.73
2018-07-23T08:58:19.114Z,1014.71
2018-07-23T08:59:19.116Z,1014.72
2018-07-23T09:00:19.073Z,1014.74
2018-07-23T09:01:19.120Z,1014.76
2018-07-23T09:02:19.092Z,1014.75
2018-07-23T09:03:19.032Z,1014.76
2018-07-23T09:04:19.004Z,1014.76
2018-07-23T09:05:19.047Z,1014.73
2018-07-23T09:06:18.981Z,1014.75
2018-07-23T09:07:19.061Z,1014.76
2018-07-23T09:08:18.951Z,1014.77
2018-07-23T09:09:18.972Z,1014.80
2018-07-23T09:10:18.919Z,1014.78
2018-07-23T09:11:18.987Z,1014.78
2018-07-23T09:12:18.883Z,1014.71
2018-07-23T09:13:18.902Z,1014.73
2018-07-23T09:14:18.853Z,1014.78
2018-07-23T09:15:18.917Z,1014.79
2018-07-23T09:16:18.821Z,1014.83
2018-07-23T09:17:18.886Z,1014.81
2018-07-23T09:18:18.791Z,1014.82
2018-07-23T09:19:18.841Z,1014.83
2018-07-23T09:20:18.761Z,1014.80
2018-07-23T09:21:18.856Z,1014.79
2018-07-23T09:22:18.737Z,1014.77
2018-07-23T09:23:18.773Z,1014.77
2018-07-23T09:24:18.696Z,1014.76
2018-07-23T09:25:18.783Z,1014.76
2018-07-23T09:26:18.676Z,1014.73
2018-07-23T09:27:18.694Z,1014.70
2018-07-23T09:28:18.642Z,1014.71
2018-07-23T09:29:18.719Z,1014.71
2018-07-23T09:30:18.625Z,1014.73
2018-07-23T09:31:18.625Z,1014.70
2018-07-23T09:32:18.582Z,1014.69
2018-07-23T09:33:18.634Z,1014.65
2018-07-23T09:34:18.562Z,1014.65
2018-07-23T09:35:18.649Z,1014.69
2018-07-23T09:36:18.527Z,1014.67
2018-07-23T09:37:18.681Z,1014.71
2018-07-23T09:38:18.495Z,1014.73
2018-07-23T09:39:18.572Z,1014.73
2018-07-23T09:40:18.485Z,1014.72
2018-07-23T09:41:18.485Z,1014.68
2018-07-23T09:42:18.437Z,1014.74
2018-07-23T09:43:18.496Z,1014.74
2018-07-23T09:44:18.409Z,1014.72
2018-07-23T09:45:18.414Z,1014.70
2018-07-23T09:46:18.385Z,1014.68
2018-07-23T09:47:18.433Z,1014.68
2018-07-23T09:48:18.354Z,1014.66
2018-07-23T09:49:18.441Z,1014.62
2018-07-23T09:50:18.331Z,1014.62
2018-07-23T09:51:18.354Z,1014.65
2018-07-23T09:52:18.296Z,1014.63
2018-07-23T09:53:18.366Z,1014.63
2018-07-23T09:54:18.361Z,1014.61
2018-07-23T09:55:18.276Z,1014.59
2018-07-23T09:56:18.246Z,1014.62
2018-07-23T09:57:18.336Z,1014.66
2018-07-23T09:58:18.216Z,1014.69
2018-07-23T09:59:18.205Z,1014.69
2018-07-23T10:00:18.207Z,1014.74
2018-07-23T10:01:18.173Z,1014.66
2018-07-23T10:02:18.222Z,1014.66
2018-07-23T10:03:18.237Z,1014.63
2018-07-23T10:04:18.242Z,1014.61
2018-07-23T10:05:18.120Z,1014.59
2018-07-23T10:06:18.150Z,1014.62
2018-07-23T10:07:18.095Z,1014.60
2018-07-23T10:08:18.163Z,1014.61
2018-07-23T10:09:18.066Z,1014.64
2018-07-23T10:10:18.074Z,1014.62
2018-07-23T10:11:18.040Z,1014.60
2018-07-23T10:12:18.090Z,1014.61
2018-07-23T10:13:18.016Z,1014.62
2018-07-23T10:14:18.103Z,1014.64
2018-07-23T10:15:17.990Z,1014.61
2018-07-23T10:16:18.014Z,1014.65
2018-07-23T10:17:17.966Z,1014.57
2018-07-23T10:18:18.030Z,1014.63
2018-07-23T10:19:17.941Z,1014.52
2018-07-23T10:20:18.042Z,1014.58
2018-07-23T10:21:17.919Z,1014.58
2018-07-23T10:22:18.001Z,1014.56
2018-07-23T10:23:17.899Z,1014.56
2018-07-23T10:24:17.966Z,1014.54
2018-07-23T10:25:17.865Z,1014.53
2018-07-23T10:26:17.879Z,1014.50
2018-07-23T10:27:17.840Z,1014.52
2018-07-23T10:28:17.898Z,1014.50
2018-07-23T10:29:17.814Z,1014.51
2018-07-23T10:30:17.913Z,1014.53
2018-07-23T10:31:17.793Z,1014.54
2018-07-23T10:32:17.822Z,1014.57
2018-07-23T10:33:17.773Z,1014.57
2018-07-23T10:34:17.836Z,1014.57
2018-07-23T10:35:17.752Z,1014.57
2018-07-23T10:36:17.851Z,1014.53
2018-07-23T10:37:17.729Z,1014.55
2018-07-23T10:38:17.763Z,1014.51
2018-07-23T10:39:17.705Z,1014.48
2018-07-23T10:40:17.776Z,1014.52
2018-07-23T10:41:17.675Z,1014.50
2018-07-23T10:42:17.691Z,1014.45
2018-07-23T10:43:17.657Z,1014.44
2018-07-23T10:44:17.700Z,1014.40
2018-07-23T10:45:17.629Z,1014.45
2018-07-23T10:46:17.716Z,1014.43
2018-07-23T10:47:17.621Z,1014.47
2018-07-23T10:48:17.628Z,1014.41
2018-07-23T10:49:17.587Z,1014.39
2018-07-23T10:50:17.665Z,1014.40
2018-07-23T10:51:17.566Z,1014.45
2018-07-23T10:52:17.669Z,1014.42
2018-07-23T10:53:17.555Z,1014.46
2018-07-23T10:54:17.572Z,1014.38
2018-07-23T10:55:17.523Z,1014.40
2018-07-23T10:56:17.584Z,1014.41
2018-07-23T10:57:17.563Z,1014.39
2018-07-23T10:58:17.598Z,1014.40
2018-07-23T10:59:17.477Z,1014.39
2018-07-23T11:00:17.513Z,1014.41
2018-07-23T11:01:17.458Z,1014.41
2018-07-23T11:02:17.528Z,1014.43
2018-07-23T11:03:17.434Z,1014.42
2018-07-23T11:04:17.458Z,1014.37
2018-07-23T11:05:17.410Z,1014.37
2018-07-23T11:06:17.454Z,1014.40
2018-07-23T11:07:17.421Z,1014.37
2018-07-23T11:08:17.468Z,1014.42
2018-07-23T11:09:17.391Z,1014.40
2018-07-23T11:10:17.378Z,1014.40
2018-07-23T11:11:17.349Z,1014.46
2018-07-23T11:12:17.393Z,1014.43
2018-07-23T11:13:17.452Z,1014.39
2018-07-23T11:14:17.409Z,1014.42
2018-07-23T11:15:17.298Z,1014.40
2018-07-23T11:16:17.316Z,1014.44
2018-07-23T11:17:17.282Z,1014.46
2018-07-23T11:18:17.333Z,1014.45
2018-07-23T11:19:17.329Z,1014.43
2018-07-23T11:20:17.346Z,1014.45
2018-07-23T11:21:17.232Z,1014.44
2018-07-23T11:22:17.256Z,1014.45
2018-07-23T11:23:17.208Z,1014.38
2018-07-23T11:24:17.275Z,1014.44
2018-07-23T11:25:38.809Z,1014.44
2018-07-23T11:26:17.304Z,1014.49
2018-07-23T11:27:17.170Z,1014.46
2018-07-23T11:28:17.196Z,1014.44
2018-07-23T11:29:17.164Z,1014.40
2018-07-23T11:30:17.212Z,1014.46
2018-07-23T11:31:17.119Z,1014.38
2018-07-23T11:32:17.128Z,1014.45
2018-07-23T11:33:17.106Z,1014.47
2018-07-23T11:34:17.140Z,1014.43
2018-07-23T11:35:17.080Z,1014.43
2018-07-23T11:36:17.148Z,1014.43
2018-07-23T11:37:17.054Z,1014.42
2018-07-23T11:38:17.065Z,1014.40
2018-07-23T11:39:17.034Z,1014.39
2018-07-23T11:40:17.079Z,1014.46
2018-07-23T11:41:17.014Z,1014.46
2018-07-23T11:42:17.094Z,1014.40
2018-07-23T11:43:16.996Z,1014.40
2018-07-23T11:44:17.006Z,1014.43
2018-07-23T11:45:17.037Z,1014.41
2018-07-23T11:46:24.983Z,1014.42
2018-07-23T11:47:17.021Z,1014.38
2018-07-23T11:48:17.032Z,1014.39
2018-07-23T11:49:16.932Z,1014.37
2018-07-23T11:50:16.948Z,1014.43
2018-07-23T11:51:16.918Z,1014.38
2018-07-23T11:52:16.971Z,1014.34
2018-07-23T11:53:16.954Z,1014.35
2018-07-23T11:54:16.990Z,1014.36
2018-07-23T11:55:16.872Z,1014.39
2018-07-23T11:56:16.884Z,1014.36
2018-07-23T11:57:16.851Z,1014.35
2018-07-23T11:58:16.901Z,1014.38
2018-07-23T11:59:16.832Z,1014.30
2018-07-23T12:00:16.918Z,1014.27
2018-07-23T12:01:16.812Z,1014.23
2018-07-23T12:02:16.827Z,1014.26
2018-07-23T12:03:16.794Z,1014.23
2018-07-23T12:04:16.900Z,1014.26
2018-07-23T12:05:16.784Z,1014.25